CheckWX is a tool to help pilots better visualize weather data.  It is not intended as a substitute for an official pre-flight weather briefing.

14:16:30 UTC

KLUD METAR
Decatur Municipal Airport
Decatur, Texas, USA
Current

22 mins ago

KLUD 221355Z AUTO 16011G15KT 10SM BKN013 18/16 A3002 RMK AO2 T01810155
Observed
Apr-22 @ 13:55 UTC
Wind
  • 160° at 11 KTS
  • Gusting to 15 KTS
Visibility
10 SM
Flight Rules
MVFR
Cloud Levels
  • Broken at 1,300' AGL
Temperature
18°C / 64°F
Dewpoint
16°C / 61°F
Humidity
88%
Altimeter
30.02" Hg
Pressure
1016.62 hPa
Previous

42 mins ago

KLUD 221335Z AUTO 17010G18KT 10SM BKN013 18/16 A3001 RMK AO2 T01810155
Observed
Apr-22 @ 13:35 UTC
Wind
  • 170° at 10 KTS
  • Gusting to 18 KTS
Visibility
10 SM
Flight Rules
MVFR
Cloud Levels
  • Broken at 1,300' AGL
Temperature
18°C / 64°F
Dewpoint
16°C / 61°F
Humidity
88%
Altimeter
30.01" Hg
Pressure
1016.22 hPa
Previous

1 hour ago

KLUD 221315Z AUTO 16011G16KT 10SM OVC011 18/16 A3001 RMK AO2 T01780155
Observed
Apr-22 @ 13:15 UTC
Wind
  • 160° at 11 KTS
  • Gusting to 16 KTS
Visibility
10 SM
Flight Rules
MVFR
Cloud Levels
  • Overcast at 1,100' AGL
Temperature
18°C / 64°F
Dewpoint
16°C / 61°F
Humidity
88%
Altimeter
30.01" Hg
Pressure
1016.22 hPa